Time;durP1;ratioP1;P1;durP2;ratioP2;P2;SDS_P1;SDS_P2;PMS_P1;PMS_P2;Temp;Humidity;BMP_temperature;BMP_pressure;BME280_temperature;BME280_humidity;BME280_pressure;Samples;Min_cycle;Max_cycle;Signal;HPM_P1;HPM_P2
2023/12/31 00:01:10;;;;;;;;;;;12.50;53.60;;;12.66;56.47;99948.84;5072213;28;19928;-35
2023/12/31 00:03:39;;;;;;;;;;;12.50;53.60;;;12.73;57.06;99951.31;5072461;28;20020;-36
2023/12/31 00:06:07;;;;;;;;;;;12.50;53.60;;;12.75;57.25;99949.00;5072320;28;19971;-36
2023/12/31 00:08:36;;;;;;;;;;;12.50;53.50;;;12.78;56.73;99944.28;5071825;28;19924;-36
2023/12/31 00:11:04;;;;;;;;;;;12.50;53.50;;;12.79;56.65;99946.97;5072465;28;19924;-36
2023/12/31 00:13:32;;;;;;;;;;;12.60;53.50;;;12.83;56.18;99936.53;5072470;28;19931;-36
2023/12/31 00:16:00;;;;;;;;;;;12.60;53.50;;;12.83;56.36;99918.94;5071883;28;20353;-36
2023/12/31 00:18:27;;;;;;;;;;;12.60;53.40;;;12.84;55.96;99920.72;5051620;28;19925;-35
2023/12/31 00:20:55;;;;;;;;;;;12.60;53.40;;;12.82;56.09;99916.25;5068196;28;20022;-37
2023/12/31 00:23:23;;;;;;;;;;;12.60;53.40;;;12.81;55.50;99905.31;5072071;28;19932;-36
2023/12/31 00:25:53;;;;;;;;;;;12.60;53.40;;;12.83;56.09;99908.91;5071937;28;20094;-35
2023/12/31 00:28:20;;;;;;;;;;;12.60;53.40;;;12.84;55.79;99895.56;5071133;28;20338;-36
2023/12/31 00:30:48;;;;;;;;;;;12.60;53.40;;;12.82;56.60;99891.13;5071908;28;19925;-36
2023/12/31 00:33:17;;;;;;;;;;;12.60;53.40;;;12.79;56.71;99886.63;5071532;28;20015;-36
2023/12/31 00:35:45;;;;;;;;;;;12.60;53.40;;;12.79;56.22;99881.63;5077278;28;19950;-35
2023/12/31 00:38:12;;;;;;;;;;;12.60;53.40;;;12.76;55.81;99876.28;5066835;28;20007;-35
2023/12/31 00:40:40;;;;;;;;;;;12.60;53.50;;;12.77;55.89;99865.47;5072358;28;19929;-36
2023/12/31 00:43:10;;;;;;;;;;;12.60;53.50;;;12.76;56.92;99866.22;5071965;28;20380;-36
2023/12/31 00:45:37;;;;;;;;;;;12.60;53.50;;;12.74;56.33;99865.16;5072021;28;19931;-35
2023/12/31 00:48:06;;;;;;;;;;;12.60;53.50;;;12.73;56.63;99855.81;5054166;28;19931;-35
2023/12/31 00:50:34;;;;;;;;;;;12.60;53.50;;;12.72;56.98;99859.03;5052174;28;19925;-36
2023/12/31 00:53:02;;;;;;;;;;;12.60;53.60;;;12.69;56.08;99852.81;5051921;28;20007;-36
2023/12/31 00:55:30;;;;;;;;;;;12.50;53.40;;;12.70;56.87;99859.63;5063712;28;19928;-36
2023/12/31 00:57:58;;;;;;;;;;;12.50;53.40;;;12.68;56.60;99851.91;5071489;28;19967;-36
2023/12/31 01:00:27;;;;;;;;;;;12.60;53.50;;;12.66;56.09;99853.34;5068708;28;20315;-36
2023/12/31 01:02:55;;;;;;;;;;;12.60;53.60;;;12.64;57.27;99854.84;5067071;28;19932;-35
2023/12/31 01:05:23;;;;;;;;;;;12.50;53.50;;;12.65;55.95;99855.69;5071893;28;20402;-36
2023/12/31 01:07:51;;;;;;;;;;;12.50;53.50;;;12.62;57.37;99846.22;5071216;28;19935;-36
2023/12/31 01:10:19;;;;;;;;;;;12.50;53.60;;;12.61;57.49;99838.50;5071788;28;19931;-36
2023/12/31 01:12:47;;;;;;;;;;;12.50;53.60;;;12.59;56.60;99840.84;5057879;28;19932;-35
2023/12/31 01:15:15;;;;;;;;;;;12.50;53.60;;;12.60;56.82;99836.72;5069211;28;20402;-35
2023/12/31 01:17:44;;;;;;;;;;;12.50;53.70;;;12.57;57.07;99827.25;5071036;28;19924;-37
2023/12/31 01:20:12;;;;;;;;;;;12.50;53.70;;;12.58;56.70;99828.13;5070806;28;19924;-36
2023/12/31 01:22:40;;;;;;;;;;;12.40;53.70;;;12.57;56.88;99817.19;5051344;28;20364;-36
2023/12/31 01:25:09;;;;;;;;;;;12.40;53.70;;;12.56;57.29;99810.38;5068367;28;20391;-35
2023/12/31 01:27:36;;;;;;;;;;;12.40;53.70;;;12.55;57.27;99798.53;5062532;28;19924;-35
2023/12/31 01:30:06;;;;;;;;;;;12.40;53.70;;;12.56;57.11;99790.28;5071394;28;19936;-35
2023/12/31 01:32:34;;;;;;;;;;;12.40;53.80;;;12.56;57.28;99797.81;5063551;28;19925;-35
2023/12/31 01:35:03;;;;;;;;;;;12.40;53.80;;;12.56;57.03;99795.31;5055554;28;19947;-35
2023/12/31 01:37:31;;;;;;;;;;;12.40;53.70;;;12.58;57.21;99793.84;5064147;28;19928;-36
2023/12/31 01:39:59;;;;;;;;;;;12.40;53.70;;;12.61;57.45;99794.16;5071018;28;19978;-36
2023/12/31 01:42:27;;;;;;;;;;;12.40;53.70;;;12.62;56.77;99780.88;5070940;28;20403;-35
2023/12/31 01:44:54;;;;;;;;;;;12.40;53.60;;;12.64;56.68;99771.91;5073296;28;20007;-35
2023/12/31 01:47:22;;;;;;;;;;;12.50;53.70;;;12.67;56.80;99768.81;5074850;28;20003;-35
2023/12/31 01:49:50;;;;;;;;;;;12.50;53.70;;;12.68;57.06;99776.50;5076152;28;19931;-35
2023/12/31 01:52:20;;;;;;;;;;;12.50;53.60;;;12.70;56.14;99765.00;5075326;28;19924;-35
2023/12/31 01:54:48;;;;;;;;;;;12.50;53.60;;;12.72;56.53;99768.56;5075252;28;19925;-35
2023/12/31 01:57:16;;;;;;;;;;;12.50;53.60;;;12.76;56.42;99778.25;5075621;28;20272;-36
2023/12/31 01:59:44;;;;;;;;;;;12.50;53.50;;;12.80;57.17;99770.28;5074564;28;19924;-36
2023/12/31 02:02:11;;;;;;;;;;;12.60;53.60;;;12.60;56.23;99727.03;5074957;28;19932;-36
2023/12/31 02:04:40;;;;;;;;;;;12.60;53.50;;;12.82;56.17;99751.25;5075204;28;20383;-35
2023/12/31 02:07:08;;;;;;;;;;;12.60;53.50;;;12.82;56.29;99740.28;5074843;28;19924;-36
2023/12/31 02:09:37;;;;;;;;;;;12.60;53.50;;;12.51;55.85;99685.88;5066339;28;19988;-36
2023/12/31 02:12:06;;;;;;;;;;;12.60;53.40;;;12.81;56.62;99743.53;5075253;28;19925;-36
2023/12/31 02:14:33;;;;;;;;;;;12.60;53.40;;;12.81;56.34;99744.41;5074837;28;19934;-37
2023/12/31 02:17:01;;;;;;;;;;;12.60;53.40;;;12.79;56.86;99733.31;5059450;28;20106;-36
2023/12/31 02:19:29;;;;;;;;;;;12.60;53.40;;;12.81;55.95;99739.41;5073575;28;19939;-36
2023/12/31 02:21:58;;;;;;;;;;;12.60;53.40;;;12.80;55.85;99722.53;5074718;28;20011;-36
2023/12/31 02:24:27;;;;;;;;;;;12.60;53.50;;;12.79;57.01;99715.72;5075029;28;19925;-37
2023/12/31 02:26:57;;;;;;;;;;;12.60;53.50;;;12.77;56.44;99712.13;5075024;28;19934;-36
2023/12/31 02:29:24;;;;;;;;;;;12.60;53.50;;;12.76;56.85;99697.81;5073889;28;20397;-36
2023/12/31 02:31:52;;;;;;;;;;;12.60;53.50;;;12.76;56.21;99705.34;5074660;28;19928;-36
2023/12/31 02:34:20;;;;;;;;;;;12.60;53.50;;;12.75;56.29;99698.53;5074456;28;19936;-37
2023/12/31 02:36:48;;;;;;;;;;;12.60;53.50;;;12.74;56.79;99690.81;5074695;28;20357;-36
2023/12/31 02:39:16;;;;;;;;;;;12.60;53.50;;;12.72;56.62;99688.13;5059039;28;19924;-37
2023/12/31 02:41:44;;;;;;;;;;;12.60;53.60;;;12.72;56.13;99683.09;5074631;28;19924;-36
2023/12/31 02:44:13;;;;;;;;;;;12.60;53.60;;;12.73;56.22;99679.88;5074209;28;20469;-37
2023/12/31 02:46:41;;;;;;;;;;;12.50;53.40;;;12.71;56.31;99673.78;5074773;28;19925;-36
2023/12/31 02:49:11;;;;;;;;;;;12.60;53.50;;;12.70;56.25;99678.66;5073635;28;19974;-37
2023/12/31 02:51:39;;;;;;;;;;;12.60;53.50;;;12.67;57.01;99671.69;5074605;28;19925;-36
2023/12/31 02:54:06;;;;;;;;;;;12.50;53.50;;;12.68;56.98;99676.00;5074485;28;19924;-37
2023/12/31 02:56:39;;;;;;;;;;;12.50;53.40;;;12.65;56.44;99665.59;5073388;28;20312;-36
2023/12/31 02:59:07;;;;;;;;;;;12.50;53.40;;;12.64;56.89;99662.94;5073576;28;19924;-37
2023/12/31 03:01:37;;;;;;;;;;;12.50;53.50;;;12.61;56.85;99663.50;5073887;28;19924;-37
2023/12/31 03:04:05;;;;;;;;;;;12.50;53.50;;;12.61;57.10;99658.47;5073963;28;20440;-36
2023/12/31 03:06:37;;;;;;;;;;;12.50;53.50;;;12.59;56.53;99649.88;5074135;28;19928;-37
2023/12/31 03:09:06;;;;;;;;;;;12.50;53.60;;;12.59;56.60;99648.97;5073561;28;20007;-36
2023/12/31 03:11:34;;;;;;;;;;;12.50;53.60;;;12.60;57.42;99645.75;5076708;28;19947;-36
2023/12/31 03:14:02;;;;;;;;;;;12.50;53.60;;;12.59;56.28;99644.84;5063238;28;19924;-36
2023/12/31 03:16:30;;;;;;;;;;;12.40;53.60;;;12.58;56.73;99638.06;5070386;28;19931;-36
2023/12/31 03:18:59;;;;;;;;;;;12.40;53.60;;;12.58;56.66;99633.03;5067901;28;19925;-37
2023/12/31 03:21:27;;;;;;;;;;;12.40;53.60;;;12.57;56.72;99628.75;5063696;28;19924;-37
2023/12/31 03:23:55;;;;;;;;;;;12.40;53.60;;;12.58;57.06;99625.50;5067765;28;19967;-37
2023/12/31 03:26:23;;;;;;;;;;;12.40;53.60;;;12.58;57.07;99617.97;5073373;28;19928;-37
2023/12/31 03:28:51;;;;;;;;;;;12.40;53.70;;;12.60;57.35;99626.53;5073044;28;19995;-37
2023/12/31 03:31:19;;;;;;;;;;;12.40;53.60;;;12.57;57.09;99621.19;5073347;28;20403;-37
2023/12/31 03:33:47;;;;;;;;;;;12.40;53.60;;;12.60;56.59;99621.50;5073868;28;19978;-37
2023/12/31 03:36:16;;;;;;;;;;;12.40;53.60;;;12.60;56.53;99613.97;5073762;28;19970;-37
2023/12/31 03:38:44;;;;;;;;;;;12.40;53.60;;;12.61;56.59;99602.28;5072593;28;20009;-36
2023/12/31 03:41:13;;;;;;;;;;;12.40;53.60;;;12.62;56.60;99592.41;5073324;28;20124;-37
2023/12/31 03:43:41;;;;;;;;;;;12.50;53.60;;;12.62;56.30;99584.88;5073674;28;19931;-37
2023/12/31 03:46:09;;;;;;;;;;;12.50;53.60;;;12.66;56.21;99589.47;5073205;28;19968;-37
2023/12/31 03:48:37;;;;;;;;;;;12.50;53.50;;;12.67;56.84;99578.69;5072720;28;20292;-36
2023/12/31 03:51:05;;;;;;;;;;;12.50;53.50;;;12.69;56.96;99577.25;5073070;28;19931;-37
2023/12/31 03:53:34;;;;;;;;;;;12.50;53.50;;;12.70;56.48;99563.06;5072850;28;19951;-36
2023/12/31 03:56:01;;;;;;;;;;;12.50;53.40;;;12.74;55.92;99565.16;5073112;28;19925;-37
2023/12/31 03:58:29;;;;;;;;;;;12.50;53.40;;;12.76;56.44;99574.66;5053295;28;19932;-37
2023/12/31 04:00:57;;;;;;;;;;;12.50;53.40;;;12.77;56.34;99573.88;5067105;28;20380;-37
2023/12/31 04:03:25;;;;;;;;;;;12.60;53.50;;;12.79;56.43;99564.91;5073164;28;19924;-36
2023/12/31 04:05:53;;;;;;;;;;;12.50;53.40;;;12.77;56.69;99565.50;5072946;28;19928;-35
2023/12/31 04:08:21;;;;;;;;;;;12.60;53.40;;;12.79;55.95;99564.91;5071168;28;19928;-36
2023/12/31 04:10:50;;;;;;;;;;;12.60;53.40;;;12.82;55.86;99559.31;5072614;28;19931;-36
2023/12/31 04:13:18;;;;;;;;;;;12.60;53.40;;;12.82;56.18;99555.16;5064040;28;20028;-36
2023/12/31 04:15:46;;;;;;;;;;;12.60;53.40;;;12.80;55.94;99556.63;5065294;28;19924;-35
2023/12/31 04:18:14;;;;;;;;;;;12.60;53.30;;;12.80;56.83;99556.63;5071846;28;19934;-36
2023/12/31 04:20:42;;;;;;;;;;;12.60;53.30;;;12.79;56.78;99554.84;5072497;28;19924;-35
2023/12/31 04:23:09;;;;;;;;;;;12.60;53.40;;;12.77;56.71;99546.25;5072678;28;19931;-35
2023/12/31 04:25:37;;;;;;;;;;;12.60;53.40;;;12.78;56.24;99547.13;5053071;28;19925;-35
2023/12/31 04:28:07;;;;;;;;;;;12.60;53.40;;;12.76;56.44;99549.50;5051703;28;19938;-36
2023/12/31 04:30:37;;;;;;;;;;;12.60;53.40;;;12.76;55.68;99536.06;5071700;28;19929;-36
2023/12/31 04:33:05;;;;;;;;;;;12.60;53.40;;;12.73;56.29;99544.16;5072714;28;20414;-36
2023/12/31 04:35:33;;;;;;;;;;;12.50;53.40;;;12.69;56.15;99524.47;5072023;28;19931;-36
2023/12/31 04:40:37;;;;;;;;;;;12.50;53.40;;;12.65;56.39;99509.78;5039256;28;19943;-35
2023/12/31 04:43:05;;;;;;;;;;;12.50;53.40;;;12.66;56.11;99506.56;5053467;28;20311;-35
2023/12/31 04:45:34;;;;;;;;;;;12.50;53.50;;;12.66;56.66;99510.69;5044671;28;19964;-35
2023/12/31 04:48:02;;;;;;;;;;;12.50;53.50;;;12.65;56.96;99503.88;5044458;28;19929;-35
2023/12/31 04:50:29;;;;;;;;;;;12.50;53.50;;;12.64;56.90;99500.50;5053044;28;19929;-35
2023/12/31 04:52:57;;;;;;;;;;;12.50;53.50;;;12.62;56.62;99496.94;5047470;28;20388;-35
2023/12/31 04:55:25;;;;;;;;;;;12.50;53.50;;;12.58;56.52;99487.31;5048949;28;19925;-36
2023/12/31 04:57:53;;;;;;;;;;;12.40;53.50;;;12.61;56.50;99490.13;5040970;28;19932;-37
2023/12/31 05:00:21;;;;;;;;;;;12.40;53.50;;;12.60;56.53;99490.84;5041229;28;20016;-35
2023/12/31 05:02:51;;;;;;;;;;;12.40;53.50;;;12.60;56.47;99489.94;5052690;28;20400;-36
2023/12/31 05:05:19;;;;;;;;;;;12.40;53.50;;;12.58;56.88;99484.78;5052826;28;20019;-35
2023/12/31 05:07:48;;;;;;;;;;;12.40;53.50;;;12.58;56.87;99477.25;5052428;28;19970;-35
2023/12/31 05:10:16;;;;;;;;;;;12.40;53.50;;;12.57;56.78;99475.47;5052413;28;19925;-35
2023/12/31 05:12:44;;;;;;;;;;;12.40;53.50;;;12.57;57.42;99460.41;5024599;28;19995;-35
2023/12/31 05:15:11;;;;;;;;;;;12.40;53.50;;;12.55;57.41;99451.81;5040892;28;20016;-35
2023/12/31 05:17:39;;;;;;;;;;;12.40;53.60;;;12.49;57.00;99441.13;5048778;28;19933;-36
2023/12/31 05:20:11;;;;;;;;;;;12.40;53.60;;;12.54;57.04;99444.97;5047615;28;19925;-36
2023/12/31 05:22:39;;;;;;;;;;;12.40;53.60;;;12.53;57.33;99438.19;5052083;28;19964;-36
2023/12/31 05:25:07;;;;;;;;;;;12.40;53.60;;;12.55;56.95;99436.72;5051845;28;19933;-35
2023/12/31 05:27:35;;;;;;;;;;;12.40;53.60;;;12.55;56.89;99426.66;5041117;28;20395;-34
2023/12/31 05:30:04;;;;;;;;;;;12.40;53.60;;;12.54;56.94;99434.94;5032494;28;19925;-34
2023/12/31 05:32:32;;;;;;;;;;;12.40;53.60;;;12.53;57.06;99413.06;5042065;28;19982;-35
2023/12/31 05:35:00;;;;;;;;;;;12.40;53.60;;;12.56;56.80;99418.41;5046537;28;19929;-36
2023/12/31 05:37:29;;;;;;;;;;;12.40;53.50;;;12.57;56.23;99405.13;5039753;28;19924;-36
2023/12/31 05:39:57;;;;;;;;;;;12.40;53.50;;;12.48;56.88;99379.03;5036961;28;19925;-36
2023/12/31 05:42:27;;;;;;;;;;;12.40;53.50;;;12.60;57.21;99390.34;5043517;28;20380;-36
2023/12/31 05:44:55;;;;;;;;;;;12.40;53.40;;;12.62;56.40;99383.84;5038744;28;20361;-34
2023/12/31 05:47:23;;;;;;;;;;;12.40;53.40;;;12.63;56.27;99375.59;5032334;28;19957;-34
2023/12/31 05:50:11;;;;;;;;;;;12.50;53.40;;;12.67;56.37;99371.75;5048513;28;19928;-34
2023/12/31 05:52:40;;;;;;;;;;;12.50;53.40;;;12.67;56.20;99366.72;5046943;28;19940;-35
2023/12/31 05:55:09;;;;;;;;;;;12.50;53.40;;;12.71;56.42;99349.59;5040700;28;19961;-35
2023/12/31 05:57:38;;;;;;;;;;;12.50;53.30;;;12.71;56.22;99349.59;5033418;28;19995;-35
2023/12/31 06:00:08;;;;;;;;;;;12.50;53.20;;;12.76;56.65;99347.56;5037193;28;19925;-35
2023/12/31 06:02:36;;;;;;;;;;;12.60;53.30;;;12.77;55.97;99349.34;5049754;28;19935;-35
2023/12/31 06:05:04;;;;;;;;;;;12.60;53.20;;;12.78;55.95;99351.09;5051436;28;20051;-35
2023/12/31 06:07:32;;;;;;;;;;;12.60;53.20;;;12.81;55.90;99349.78;5049389;28;19951;-35
2023/12/31 06:10:03;;;;;;;;;;;12.60;53.20;;;12.81;56.20;99337.22;5045388;28;19924;-35
2023/12/31 06:12:31;;;;;;;;;;;12.60;53.10;;;12.83;56.04;99335.75;5051758;28;19971;-35
2023/12/31 06:15:00;;;;;;;;;;;12.60;53.10;;;12.78;55.45;99326.84;5043387;28;20110;-35
2023/12/31 06:17:28;;;;;;;;;;;12.60;53.10;;;12.83;56.10;99329.84;5050677;28;19929;-34
2023/12/31 06:19:57;;;;;;;;;;;12.60;53.10;;;12.82;55.45;99318.91;5047040;28;19929;-35
2023/12/31 06:22:24;;;;;;;;;;;12.60;53.10;;;12.84;55.96;99319.91;5047735;28;20414;-35
2023/12/31 06:24:52;;;;;;;;;;;12.60;53.10;;;12.82;55.58;99316.38;5043977;28;19928;-35
2023/12/31 06:27:22;;;;;;;;;;;12.60;53.10;;;12.82;55.88;99323.94;5051285;28;20495;-35
2023/12/31 06:29:50;;;;;;;;;;;12.60;53.10;;;12.80;56.67;99325.38;5033061;28;19925;-35
2023/12/31 06:32:18;;;;;;;;;;;12.60;53.20;;;12.72;56.36;99311.16;5044113;28;19924;-35
2023/12/31 06:34:46;;;;;;;;;;;12.60;53.20;;;12.74;56.37;99319.75;5055023;28;20017;-34
2023/12/31 06:37:14;;;;;;;;;;;12.60;53.20;;;12.71;56.60;99319.44;5055715;28;19925;-35
2023/12/31 06:39:43;;;;;;;;;;;12.50;53.20;;;12.69;55.97;99305.84;5046200;28;19936;-35
2023/12/31 06:42:11;;;;;;;;;;;12.50;53.30;;;12.69;56.27;99309.97;5047215;28;19925;-35
2023/12/31 06:44:41;;;;;;;;;;;12.50;53.30;;;12.66;56.50;99302.13;5037986;28;19928;-35
2023/12/31 06:47:10;;;;;;;;;;;12.50;53.40;;;12.63;56.25;99305.22;5055188;28;19925;-35
2023/12/31 06:49:38;;;;;;;;;;;12.50;53.40;;;12.59;56.34;99293.06;5054028;28;19925;-35
2023/12/31 06:52:06;;;;;;;;;;;12.40;53.40;;;12.61;56.78;99295.75;5049012;28;19971;-35
2023/12/31 06:54:34;;;;;;;;;;;12.40;53.40;;;12.60;56.09;99293.97;5052278;28;19924;-35
2023/12/31 06:57:02;;;;;;;;;;;12.40;53.40;;;12.55;56.42;99288.50;5040994;28;19932;-35
2023/12/31 06:59:33;;;;;;;;;;;12.40;53.40;;;12.57;56.22;99289.53;5043388;28;20457;-35
2023/12/31 07:02:02;;;;;;;;;;;12.40;53.40;;;12.56;56.32;99282.72;5046379;28;19929;-35
2023/12/31 07:04:30;;;;;;;;;;;12.40;53.50;;;12.55;56.40;99283.47;5045867;28;19925;-35
2023/12/31 07:06:58;;;;;;;;;;;12.40;53.50;;;12.53;56.77;99282.41;5049699;28;19925;-35
2023/12/31 07:09:28;;;;;;;;;;;12.40;53.50;;;12.52;56.76;99273.09;5050321;28;19925;-35
2023/12/31 07:11:56;;;;;;;;;;;12.40;53.60;;;12.53;56.03;99272.38;5050551;28;19984;-35
2023/12/31 07:14:24;;;;;;;;;;;12.40;53.50;;;12.51;56.58;99263.81;5050376;28;19979;-35
2023/12/31 07:16:52;;;;;;;;;;;12.30;53.50;;;12.51;56.78;99263.81;5038316;28;19929;-35
2023/12/31 07:19:21;;;;;;;;;;;12.30;53.40;;;12.51;55.98;99253.75;5053854;28;19987;-35
2023/12/31 07:21:49;;;;;;;;;;;12.30;53.40;;;12.51;56.81;99247.84;5043885;28;19948;-35
2023/12/31 07:24:17;;;;;;;;;;;12.30;53.40;;;12.50;56.77;99236.91;5038609;28;19947;-35
2023/12/31 07:26:47;;;;;;;;;;;12.30;53.40;;;12.52;56.75;99230.38;5049085;28;20019;-35
2023/12/31 07:29:15;;;;;;;;;;;12.40;53.50;;;12.54;56.34;99228.94;5057145;28;19931;-35
2023/12/31 07:31:43;;;;;;;;;;;12.40;53.50;;;12.54;56.70;99228.03;5040767;28;20310;-34
2023/12/31 07:34:11;;;;;;;;;;;12.40;53.50;;;12.54;55.99;99231.44;5055486;28;19925;-35
2023/12/31 07:36:41;;;;;;;;;;;12.40;53.50;;;12.58;57.09;99225.13;5043556;28;20027;-35
2023/12/31 07:39:09;;;;;;;;;;;12.40;53.40;;;12.60;56.62;99219.47;5039879;28;19925;-35
2023/12/31 07:41:36;;;;;;;;;;;12.40;53.40;;;12.60;56.43;99219.47;5049086;28;20019;-35
2023/12/31 07:44:04;;;;;;;;;;;12.40;53.30;;;12.59;56.50;99197.59;5047142;28;19928;-35
2023/12/31 07:46:32;;;;;;;;;;;12.50;53.40;;;12.66;55.98;99199.97;5045321;28;19931;-35
2023/12/31 07:49:00;;;;;;;;;;;12.50;53.30;;;12.69;56.11;99195.28;5052938;28;20343;-35
2023/12/31 07:51:28;;;;;;;;;;;12.50;53.20;;;12.71;55.67;99198.81;5053380;28;19948;-35
2023/12/31 07:53:57;;;;;;;;;;;12.50;53.20;;;12.73;56.06;99198.97;5037822;28;19935;-35
2023/12/31 07:56:25;;;;;;;;;;;12.50;53.10;;;12.76;55.61;99197.66;5045391;28;20126;-35
2023/12/31 07:58:53;;;;;;;;;;;12.60;53.20;;;12.78;55.27;99191.13;5044792;28;19925;-35
2023/12/31 08:01:21;;;;;;;;;;;12.60;53.10;;;12.79;55.79;99197.03;5037723;28;19925;-35
2023/12/31 08:03:50;;;;;;;;;;;12.60;53.00;;;12.80;55.82;99194.69;5052665;28;19929;-36
2023/12/31 08:06:18;;;;;;;;;;;12.60;53.00;;;12.83;56.23;99192.50;5053403;28;19929;-35
2023/12/31 08:08:46;;;;;;;;;;;12.60;53.00;;;12.79;56.11;99192.91;5041926;28;20008;-35
2023/12/31 08:11:16;;;;;;;;;;;12.70;53.00;;;12.86;55.57;99195.28;5033996;28;20407;-35
2023/12/31 08:13:44;;;;;;;;;;;12.70;52.90;;;12.86;55.70;99185.22;5052497;28;20323;-35
2023/12/31 08:16:12;;;;;;;;;;;12.70;52.90;;;12.87;55.39;99181.97;5054086;28;20328;-35
2023/12/31 08:18:40;;;;;;;;;;;12.70;52.90;;;12.87;55.93;99171.94;5047397;28;19929;-35
2023/12/31 08:21:08;;;;;;;;;;;12.60;52.80;;;12.88;56.34;99176.22;5050130;28;19931;-35
2023/12/31 08:23:36;;;;;;;;;;;12.70;52.90;;;12.87;55.16;99171.03;5041968;28;20459;-35
2023/12/31 08:26:04;;;;;;;;;;;12.70;52.90;;;12.84;55.44;99161.56;5050410;28;20008;-35
2023/12/31 08:28:34;;;;;;;;;;;12.70;52.90;;;12.86;55.59;99171.78;5042177;28;20003;-35
2023/12/31 08:31:02;;;;;;;;;;;12.70;52.90;;;12.85;55.79;99170.00;5053676;28;20416;-35
2023/12/31 08:33:30;;;;;;;;;;;12.70;52.90;;;12.82;55.99;99163.06;5053642;28;19925;-35
2023/12/31 08:35:58;;;;;;;;;;;12.70;52.90;;;12.80;55.63;99148.56;5046755;28;19925;-35
2023/12/31 08:38:28;;;;;;;;;;;12.60;52.90;;;12.78;56.39;99155.94;5055982;28;21453;-36
2023/12/31 08:40:57;;;;;;;;;;;12.60;52.90;;;12.75;56.35;99155.66;5036163;28;20323;-36
2023/12/31 08:43:25;;;;;;;;;;;12.60;53.00;;;12.74;56.31;99153.88;5033779;28;20011;-35
2023/12/31 08:45:54;;;;;;;;;;;12.60;53.10;;;12.72;55.92;99155.34;5050217;28;20415;-35
2023/12/31 08:48:22;;;;;;;;;;;12.50;53.00;;;12.69;55.55;99152.56;5049578;28;20385;-35
2023/12/31 08:50:50;;;;;;;;;;;12.50;53.10;;;12.67;55.67;99151.50;5046232;28;20087;-35
2023/12/31 08:53:19;;;;;;;;;;;12.50;53.10;;;12.63;56.13;99139.41;5047603;28;19925;-35
2023/12/31 08:55:47;;;;;;;;;;;12.50;53.20;;;12.64;56.39;99148.72;5043778;28;19987;-36
2023/12/31 08:58:15;;;;;;;;;;;12.50;53.20;;;12.64;56.13;99147.81;5038320;28;19928;-35
2023/12/31 09:00:43;;;;;;;;;;;12.50;53.20;;;12.62;56.31;99147.66;5032778;28;20016;-35
2023/12/31 09:03:13;;;;;;;;;;;12.50;53.20;;;12.62;56.09;99151.81;5038084;28;20002;-35
2023/12/31 09:05:41;;;;;;;;;;;12.40;53.20;;;12.60;56.55;99154.16;5042387;28;19925;-35
2023/12/31 09:08:09;;;;;;;;;;;12.40;53.20;;;12.59;56.36;99152.38;5037032;28;19925;-35
2023/12/31 09:10:36;;;;;;;;;;;12.40;53.20;;;12.58;56.79;99143.09;5044115;28;19932;-35
2023/12/31 09:13:05;;;;;;;;;;;12.40;53.20;;;12.58;56.75;99139.69;5048021;28;20000;-35
2023/12/31 09:15:33;;;;;;;;;;;12.40;53.20;;;12.55;56.53;99145.28;5049080;28;20151;-35
2023/12/31 09:18:01;;;;;;;;;;;12.40;53.30;;;12.55;56.07;99140.25;5051836;28;20019;-35
2023/12/31 09:20:32;;;;;;;;;;;12.40;53.30;;;12.54;56.72;99148.53;5043837;28;19979;-35
2023/12/31 09:23:00;;;;;;;;;;;12.40;53.30;;;12.54;57.05;99143.50;5036727;28;19935;-35
2023/12/31 09:25:28;;;;;;;;;;;12.40;53.30;;;12.53;56.37;99151.78;5055273;28;19932;-35
2023/12/31 09:27:56;;;;;;;;;;;12.40;53.30;;;12.53;57.14;99149.25;5042520;28;19933;-35
2023/12/31 09:30:25;;;;;;;;;;;12.40;53.30;;;12.53;57.06;99151.78;5049006;28;20007;-34
2023/12/31 09:32:53;;;;;;;;;;;12.40;53.30;;;12.55;56.48;99132.72;5045094;28;19933;-35
2023/12/31 09:35:21;;;;;;;;;;;12.40;53.30;;;12.57;56.70;99128.75;5043504;28;19978;-34
2023/12/31 09:37:51;;;;;;;;;;;12.40;53.30;;;12.57;56.03;99128.75;5051803;28;19924;-34
2023/12/31 09:40:19;;;;;;;;;;;12.40;53.20;;;12.59;56.67;99133.91;5043064;28;19926;-34
2023/12/31 09:42:48;;;;;;;;;;;12.40;53.30;;;12.60;56.46;99126.53;5042057;28;20442;-35
2023/12/31 09:45:17;;;;;;;;;;;12.40;53.20;;;12.44;56.59;99098.16;5044027;28;19986;-34
2023/12/31 09:47:44;;;;;;;;;;;12.40;53.30;;;12.63;56.08;99131.84;5051122;28;19939;-35
2023/12/31 09:50:13;;;;;;;;;;;12.40;53.20;;;12.66;56.56;99139.69;5052115;28;20446;-36
2023/12/31 09:52:41;;;;;;;;;;;12.50;53.20;;;12.69;56.04;99134.97;5042881;28;20341;-35
2023/12/31 09:55:10;;;;;;;;;;;12.50;53.20;;;12.69;55.98;99140.00;5032230;28;19948;-34
2023/12/31 09:57:38;;;;;;;;;;;12.50;53.20;;;12.64;56.25;99116.06;5047916;28;19925;-36
2023/12/31 10:00:08;;;;;;;;;;;12.50;53.10;;;12.71;56.03;99128.44;5044225;28;20415;-33
2023/12/31 10:02:36;;;;;;;;;;;12.50;53.10;;;12.76;55.59;99127.28;5051774;28;19925;-34
2023/12/31 10:05:05;;;;;;;;;;;12.60;53.20;;;12.74;56.21;99117.81;5048872;28;20289;-34
2023/12/31 10:07:34;;;;;;;;;;;12.60;53.10;;;12.64;55.47;99090.94;5053021;28;19931;-34
2023/12/31 10:10:02;;;;;;;;;;;12.60;53.10;;;12.81;55.66;99116.03;5033286;28;20388;-35
2023/12/31 10:12:33;;;;;;;;;;;12.60;53.10;;;12.85;55.38;99123.13;5050666;28;19981;-34
2023/12/31 10:15:01;;;;;;;;;;;12.60;53.00;;;12.85;55.89;99108.03;5034485;28;20019;-35
2023/12/31 10:17:29;;;;;;;;;;;12.60;53.00;;;12.86;56.16;99109.81;5058962;28;20012;-35
2023/12/31 10:19:57;;;;;;;;;;;12.60;53.00;;;12.87;55.92;99106.56;5049322;28;19924;-35
2023/12/31 10:22:26;;;;;;;;;;;12.60;52.90;;;12.89;55.55;99112.66;5042509;28;19929;-36
2023/12/31 10:24:55;;;;;;;;;;;12.70;53.00;;;12.89;56.08;99110.13;5044218;28;19925;-35
2023/12/31 10:27:23;;;;;;;;;;;12.70;53.00;;;12.87;55.33;99101.56;5035789;28;19932;-35
2023/12/31 10:29:53;;;;;;;;;;;12.70;53.00;;;12.87;55.44;99078.94;5035283;28;19968;-35
2023/12/31 10:32:21;;;;;;;;;;;12.70;53.00;;;12.85;55.50;99067.84;5044343;28;20008;-34
2023/12/31 10:35:02;;;;;;;;;;;12.60;52.90;;;12.85;55.50;99052.75;5045286;28;20365;-34
2023/12/31 10:37:30;;;;;;;;;;;12.60;52.90;;;12.82;56.23;99072.59;5047395;28;19925;-36
2023/12/31 10:39:58;;;;;;;;;;;12.60;53.00;;;12.80;55.68;99053.94;5048327;28;19976;-35
2023/12/31 10:42:26;;;;;;;;;;;12.60;53.00;;;12.80;55.55;99058.97;5075530;22;19930;-36
2023/12/31 10:44:57;;;;;;;;;;;12.60;53.60;;;12.77;56.68;99043.59;5074385;28;20291;-36
2023/12/31 10:47:25;;;;;;;;;;;12.60;53.10;;;12.75;56.48;99040.06;5074161;28;20027;-36
2023/12/31 10:49:54;;;;;;;;;;;12.60;53.10;;;12.73;55.79;99036.50;5074436;28;20318;-36
2023/12/31 10:52:27;;;;;;;;;;;12.60;53.20;;;12.72;56.11;99029.69;5074507;28;19930;-36
2023/12/31 10:54:55;;;;;;;;;;;12.60;53.20;;;12.70;56.05;99028.69;5074695;28;19970;-36
2023/12/31 10:57:22;;;;;;;;;;;12.50;53.80;;;12.70;56.21;99016.13;5074576;28;20555;-36
2023/12/31 10:59:50;;;;;;;;;;;12.50;53.20;;;12.70;56.48;99011.09;5074420;28;19931;-35
2023/12/31 11:02:21;;;;;;;;;;;12.50;53.30;;;12.68;56.05;99007.56;5074386;28;19983;-35
2023/12/31 11:04:50;;;;;;;;;;;12.50;53.30;;;12.63;56.69;98998.69;5074154;28;19931;-37
2023/12/31 11:07:19;;;;;;;;;;;12.50;53.30;;;12.67;56.70;99005.78;5074470;28;20023;-36
2023/12/31 11:09:48;;;;;;;;;;;12.50;53.30;;;12.65;56.20;98999.72;5073651;28;20319;-36
2023/12/31 11:12:17;;;;;;;;;;;12.50;53.30;;;12.64;56.54;98995.44;5074334;28;20378;-36
2023/12/31 11:14:48;;;;;;;;;;;12.50;53.30;;;12.64;56.29;98990.44;5074968;28;20098;-36
2023/12/31 11:17:36;;;;;;;;;;;12.50;53.40;;;12.64;56.62;98995.44;5073667;28;20383;-36
2023/12/31 11:20:18;;;;;;;;;;;12.50;53.40;;;12.64;56.57;98995.44;5074279;28;20283;-37
2023/12/31 11:22:51;;;;;;;;;;;12.50;53.40;;;12.64;56.57;99010.53;5073698;28;19924;-35
2023/12/31 11:25:20;;;;;;;;;;;12.50;53.40;;;12.65;56.58;99002.22;5074105;28;19925;-35